Rechercher aéroport 
image banner adimage banner ad
image banner ad

FQCH - Chimoio / National

Situé à Chimoio, Mozambique

ICAO - FQCH, IATA - VPY

Données fournies par Airmate  

Information générale

Coordonnées: S19°8'59" E33°25'44"
Élévation : 2272 feet MSL.
 
Voir autres Aéroports à Manica Province

Données opérationnelles

Accessible au public
Heure actuelle UTC:
Heure actuelle locale:
Météo
METAR: FQCH 260900Z /////KT 9999 SCT015 FEW020CB SCT/// 28/21 Q1018 RMK CB TO NW/SW/SE
TAF: TAF FQCH 260400Z 2606/2706 30008KT 9999 BKN015 FEW020CB TX30/2613Z TN20/2703Z PROB30 TEMPO 2606/2612 5000 TSRA BKN020 FEW025CB BECMG 2612/2614 09010KT BECMG 2700/2702 03010KT
Voir NOTAMs / SUP AIP / TFR affectant cet aéroport [VIEW]
Fréquences de communication: [VIEW]

Pistes:

Identifiant RWYQFULongueur (ft)Largeur (ft)SurfaceLDA (ft)
017874148ASP
19185°7874148

Coordonnées de l'aéroport

Adresse: Chimoio Mozambique

Vue satellite de FQCH